sensor_id;sensor_type;location;lat;lon;timestamp;temperature;humidity
67147;DHT22;54061;52.036;5.558;2022-07-06T00:00:28;15.10;60.60
67147;DHT22;54061;52.036;5.558;2022-07-06T00:02:53;15.10;60.70
67147;DHT22;54061;52.036;5.558;2022-07-06T00:05:19;15.00;60.80
67147;DHT22;54061;52.036;5.558;2022-07-06T00:07:44;15.00;60.90
67147;DHT22;54061;52.036;5.558;2022-07-06T00:10:10;14.90;61.10
67147;DHT22;54061;52.036;5.558;2022-07-06T00:12:35;14.90;61.20
67147;DHT22;54061;52.036;5.558;2022-07-06T00:15:01;14.90;61.30
67147;DHT22;54061;52.036;5.558;2022-07-06T00:17:26;14.80;61.50
67147;DHT22;54061;52.036;5.558;2022-07-06T00:19:52;14.80;61.50
67147;DHT22;54061;52.036;5.558;2022-07-06T00:22:18;14.80;61.70
67147;DHT22;54061;52.036;5.558;2022-07-06T00:24:43;14.80;61.50
67147;DHT22;54061;52.036;5.558;2022-07-06T00:27:09;14.80;61.40
67147;DHT22;54061;52.036;5.558;2022-07-06T00:29:34;14.90;61.30
67147;DHT22;54061;52.036;5.558;2022-07-06T00:32:00;14.90;61.40
67147;DHT22;54061;52.036;5.558;2022-07-06T00:34:25;14.80;61.50
67147;DHT22;54061;52.036;5.558;2022-07-06T00:36:51;14.80;61.90
67147;DHT22;54061;52.036;5.558;2022-07-06T00:39:16;14.70;62.10
67147;DHT22;54061;52.036;5.558;2022-07-06T00:41:44;14.60;62.10
67147;DHT22;54061;52.036;5.558;2022-07-06T00:44:09;14.60;62.30
67147;DHT22;54061;52.036;5.558;2022-07-06T00:46:35;14.60;62.40
67147;DHT22;54061;52.036;5.558;2022-07-06T00:49:01;14.60;63.20
67147;DHT22;54061;52.036;5.558;2022-07-06T00:51:30;14.50;62.50
67147;DHT22;54061;52.036;5.558;2022-07-06T00:53:59;14.50;62.90
67147;DHT22;54061;52.036;5.558;2022-07-06T00:56:26;14.50;63.60
67147;DHT22;54061;52.036;5.558;2022-07-06T00:58:54;14.50;62.80
67147;DHT22;54061;52.036;5.558;2022-07-06T01:01:19;14.50;62.90
67147;DHT22;54061;52.036;5.558;2022-07-06T01:03:45;14.50;62.80
67147;DHT22;54061;52.036;5.558;2022-07-06T01:06:10;14.50;62.70
67147;DHT22;54061;52.036;5.558;2022-07-06T01:08:37;14.50;62.60
67147;DHT22;54061;52.036;5.558;2022-07-06T01:11:03;14.50;62.50
67147;DHT22;54061;52.036;5.558;2022-07-06T01:13:31;14.50;62.80
67147;DHT22;54061;52.036;5.558;2022-07-06T01:15:57;14.50;62.80
67147;DHT22;54061;52.036;5.558;2022-07-06T01:18:23;14.50;62.70
67147;DHT22;54061;52.036;5.558;2022-07-06T01:20:49;14.50;62.90
67147;DHT22;54061;52.036;5.558;2022-07-06T01:23:15;14.40;63.10
67147;DHT22;54061;52.036;5.558;2022-07-06T01:25:40;14.40;63.00
67147;DHT22;54061;52.036;5.558;2022-07-06T01:28:06;14.40;63.10
67147;DHT22;54061;52.036;5.558;2022-07-06T01:30:31;14.40;63.00
67147;DHT22;54061;52.036;5.558;2022-07-06T01:32:57;14.40;63.10
67147;DHT22;54061;52.036;5.558;2022-07-06T01:35:24;14.30;63.10
67147;DHT22;54061;52.036;5.558;2022-07-06T01:37:51;14.30;63.40
67147;DHT22;54061;52.036;5.558;2022-07-06T01:40:17;14.20;63.30
67147;DHT22;54061;52.036;5.558;2022-07-06T01:42:42;14.20;63.80
67147;DHT22;54061;52.036;5.558;2022-07-06T01:45:08;14.10;63.80
67147;DHT22;54061;52.036;5.558;2022-07-06T01:47:34;14.10;63.70
67147;DHT22;54061;52.036;5.558;2022-07-06T01:50:02;14.20;63.70
67147;DHT22;54061;52.036;5.558;2022-07-06T01:52:28;14.10;63.80
67147;DHT22;54061;52.036;5.558;2022-07-06T01:54:55;14.10;63.70
67147;DHT22;54061;52.036;5.558;2022-07-06T01:57:21;14.10;63.80
67147;DHT22;54061;52.036;5.558;2022-07-06T01:59:47;14.10;63.80
67147;DHT22;54061;52.036;5.558;2022-07-06T02:02:12;14.10;63.90
67147;DHT22;54061;52.036;5.558;2022-07-06T02:04:38;14.10;63.80
67147;DHT22;54061;52.036;5.558;2022-07-06T02:07:04;14.10;64.20
67147;DHT22;54061;52.036;5.558;2022-07-06T02:09:29;14.10;63.70
67147;DHT22;54061;52.036;5.558;2022-07-06T02:11:55;14.10;63.70
67147;DHT22;54061;52.036;5.558;2022-07-06T02:14:20;14.10;64.00
67147;DHT22;54061;52.036;5.558;2022-07-06T02:16:46;14.10;63.90
67147;DHT22;54061;52.036;5.558;2022-07-06T02:19:12;14.10;63.70
67147;DHT22;54061;52.036;5.558;2022-07-06T02:21:37;14.10;64.00
67147;DHT22;54061;52.036;5.558;2022-07-06T02:24:03;14.00;64.30
67147;DHT22;54061;52.036;5.558;2022-07-06T02:26:28;13.90;64.10
67147;DHT22;54061;52.036;5.558;2022-07-06T02:28:54;14.00;64.30
67147;DHT22;54061;52.036;5.558;2022-07-06T02:31:19;13.90;64.10
67147;DHT22;54061;52.036;5.558;2022-07-06T02:33:45;13.90;64.30
67147;DHT22;54061;52.036;5.558;2022-07-06T02:36:10;13.90;64.10
67147;DHT22;54061;52.036;5.558;2022-07-06T02:38:36;13.90;64.00
67147;DHT22;54061;52.036;5.558;2022-07-06T02:41:02;13.90;64.10
67147;DHT22;54061;52.036;5.558;2022-07-06T02:43:27;14.00;64.10
67147;DHT22;54061;52.036;5.558;2022-07-06T02:45:53;14.00;64.00
67147;DHT22;54061;52.036;5.558;2022-07-06T02:48:18;13.90;64.40
67147;DHT22;54061;52.036;5.558;2022-07-06T02:50:46;13.90;64.60
67147;DHT22;54061;52.036;5.558;2022-07-06T02:53:12;13.90;64.60
67147;DHT22;54061;52.036;5.558;2022-07-06T02:55:37;13.90;64.70
67147;DHT22;54061;52.036;5.558;2022-07-06T02:58:03;13.90;64.60
67147;DHT22;54061;52.036;5.558;2022-07-06T03:00:29;13.90;64.40
67147;DHT22;54061;52.036;5.558;2022-07-06T03:02:54;14.00;64.30
67147;DHT22;54061;52.036;5.558;2022-07-06T03:05:20;14.00;64.10
67147;DHT22;54061;52.036;5.558;2022-07-06T03:07:45;14.10;64.00
67147;DHT22;54061;52.036;5.558;2022-07-06T03:10:11;14.10;64.00
67147;DHT22;54061;52.036;5.558;2022-07-06T03:12:36;14.10;64.00
67147;DHT22;54061;52.036;5.558;2022-07-06T03:15:02;14.20;64.60
67147;DHT22;54061;52.036;5.558;2022-07-06T03:17:27;14.10;64.60
67147;DHT22;54061;52.036;5.558;2022-07-06T03:19:53;14.10;64.70
67147;DHT22;54061;52.036;5.558;2022-07-06T03:22:18;14.20;65.00
67147;DHT22;54061;52.036;5.558;2022-07-06T03:24:44;14.20;64.70
67147;DHT22;54061;52.036;5.558;2022-07-06T03:27:09;14.20;65.00
67147;DHT22;54061;52.036;5.558;2022-07-06T03:29:35;14.20;65.20
67147;DHT22;54061;52.036;5.558;2022-07-06T03:32:00;14.20;65.40
67147;DHT22;54061;52.036;5.558;2022-07-06T03:34:26;14.20;65.30
67147;DHT22;54061;52.036;5.558;2022-07-06T03:36:51;14.20;65.40
67147;DHT22;54061;52.036;5.558;2022-07-06T03:39:17;14.30;65.30
67147;DHT22;54061;52.036;5.558;2022-07-06T03:41:42;14.30;65.30
67147;DHT22;54061;52.036;5.558;2022-07-06T03:44:08;14.30;65.10
67147;DHT22;54061;52.036;5.558;2022-07-06T03:46:33;14.40;65.10
67147;DHT22;54061;52.036;5.558;2022-07-06T03:48:59;14.40;65.40
67147;DHT22;54061;52.036;5.558;2022-07-06T03:51:24;14.40;65.20
67147;DHT22;54061;52.036;5.558;2022-07-06T03:53:50;14.40;65.30
67147;DHT22;54061;52.036;5.558;2022-07-06T03:56:15;14.50;65.30
67147;DHT22;54061;52.036;5.558;2022-07-06T03:58:54;14.50;65.50
67147;DHT22;54061;52.036;5.558;2022-07-06T04:01:20;14.50;65.60
67147;DHT22;54061;52.036;5.558;2022-07-06T04:03:45;14.50;65.70
67147;DHT22;54061;52.036;5.558;2022-07-06T04:06:11;14.50;65.60
67147;DHT22;54061;52.036;5.558;2022-07-06T04:08:37;14.60;65.80
67147;DHT22;54061;52.036;5.558;2022-07-06T04:11:02;14.60;65.80
67147;DHT22;54061;52.036;5.558;2022-07-06T04:13:28;14.60;65.70
67147;DHT22;54061;52.036;5.558;2022-07-06T04:15:54;14.60;65.70
67147;DHT22;54061;52.036;5.558;2022-07-06T04:18:20;14.60;65.60
67147;DHT22;54061;52.036;5.558;2022-07-06T04:20:45;14.60;65.90
67147;DHT22;54061;52.036;5.558;2022-07-06T04:23:11;14.60;65.90
67147;DHT22;54061;52.036;5.558;2022-07-06T04:25:36;14.60;66.30
67147;DHT22;54061;52.036;5.558;2022-07-06T04:28:02;14.60;66.20
67147;DHT22;54061;52.036;5.558;2022-07-06T04:30:28;14.60;66.40
67147;DHT22;54061;52.036;5.558;2022-07-06T04:32:54;14.60;66.30
67147;DHT22;54061;52.036;5.558;2022-07-06T04:35:21;14.60;66.20
67147;DHT22;54061;52.036;5.558;2022-07-06T04:37:47;14.60;66.20
67147;DHT22;54061;52.036;5.558;2022-07-06T04:40:13;14.60;66.40
67147;DHT22;54061;52.036;5.558;2022-07-06T04:42:38;14.60;66.20
67147;DHT22;54061;52.036;5.558;2022-07-06T04:45:05;14.60;66.40
67147;DHT22;54061;52.036;5.558;2022-07-06T04:47:30;14.60;66.20
67147;DHT22;54061;52.036;5.558;2022-07-06T04:49:56;14.70;66.30
67147;DHT22;54061;52.036;5.558;2022-07-06T04:52:21;14.70;66.50
67147;DHT22;54061;52.036;5.558;2022-07-06T04:54:47;14.80;66.30
67147;DHT22;54061;52.036;5.558;2022-07-06T04:57:13;14.70;66.50
67147;DHT22;54061;52.036;5.558;2022-07-06T04:59:39;14.80;66.60
67147;DHT22;54061;52.036;5.558;2022-07-06T05:02:04;14.80;66.50
67147;DHT22;54061;52.036;5.558;2022-07-06T05:04:30;14.90;66.70
67147;DHT22;54061;52.036;5.558;2022-07-06T05:06:55;14.90;66.50
67147;DHT22;54061;52.036;5.558;2022-07-06T05:09:21;15.00;66.70
67147;DHT22;54061;52.036;5.558;2022-07-06T05:11:47;15.00;66.80
67147;DHT22;54061;52.036;5.558;2022-07-06T05:14:12;15.00;66.40
67147;DHT22;54061;52.036;5.558;2022-07-06T05:16:38;15.10;66.50
67147;DHT22;54061;52.036;5.558;2022-07-06T05:19:03;15.10;66.50
67147;DHT22;54061;52.036;5.558;2022-07-06T05:21:29;15.10;66.70
67147;DHT22;54061;52.036;5.558;2022-07-06T05:23:54;15.20;66.50
67147;DHT22;54061;52.036;5.558;2022-07-06T05:26:20;15.30;66.70
67147;DHT22;54061;52.036;5.558;2022-07-06T05:28:46;15.30;66.60
67147;DHT22;54061;52.036;5.558;2022-07-06T05:31:11;15.30;66.60
67147;DHT22;54061;52.036;5.558;2022-07-06T05:33:37;15.40;66.50
67147;DHT22;54061;52.036;5.558;2022-07-06T05:36:02;15.40;66.60
67147;DHT22;54061;52.036;5.558;2022-07-06T05:38:28;15.40;66.50
67147;DHT22;54061;52.036;5.558;2022-07-06T05:40:54;15.50;66.50
67147;DHT22;54061;52.036;5.558;2022-07-06T05:43:19;15.50;66.70
67147;DHT22;54061;52.036;5.558;2022-07-06T05:45:45;15.50;66.50
67147;DHT22;54061;52.036;5.558;2022-07-06T05:48:10;15.60;66.70
67147;DHT22;54061;52.036;5.558;2022-07-06T05:50:54;15.60;66.80
67147;DHT22;54061;52.036;5.558;2022-07-06T05:53:20;15.80;66.50
67147;DHT22;54061;52.036;5.558;2022-07-06T05:55:49;15.90;66.40
67147;DHT22;54061;52.036;5.558;2022-07-06T05:58:15;15.90;66.40
67147;DHT22;54061;52.036;5.558;2022-07-06T06:00:41;16.00;66.30
67147;DHT22;54061;52.036;5.558;2022-07-06T06:03:06;16.10;66.40
67147;DHT22;54061;52.036;5.558;2022-07-06T06:05:32;16.10;66.60
67147;DHT22;54061;52.036;5.558;2022-07-06T06:07:57;16.20;66.60
67147;DHT22;54061;52.036;5.558;2022-07-06T06:10:23;16.20;66.20
67147;DHT22;54061;52.036;5.558;2022-07-06T06:12:50;16.30;66.20
67147;DHT22;54061;52.036;5.558;2022-07-06T06:15:16;16.30;66.30
67147;DHT22;54061;52.036;5.558;2022-07-06T06:17:41;16.40;66.30
67147;DHT22;54061;52.036;5.558;2022-07-06T06:20:10;16.40;66.40
67147;DHT22;54061;52.036;5.558;2022-07-06T06:25:15;16.60;67.70
67147;DHT22;54061;52.036;5.558;2022-07-06T06:27:41;16.60;66.10
67147;DHT22;54061;52.036;5.558;2022-07-06T06:30:07;16.60;66.30
67147;DHT22;54061;52.036;5.558;2022-07-06T06:32:33;16.70;66.30
67147;DHT22;54061;52.036;5.558;2022-07-06T06:34:59;16.70;66.20
67147;DHT22;54061;52.036;5.558;2022-07-06T06:37:24;16.80;66.20
67147;DHT22;54061;52.036;5.558;2022-07-06T06:39:49;16.80;66.10
67147;DHT22;54061;52.036;5.558;2022-07-06T06:42:15;16.80;66.10
67147;DHT22;54061;52.036;5.558;2022-07-06T06:44:40;16.90;66.10
67147;DHT22;54061;52.036;5.558;2022-07-06T06:47:06;16.90;65.90
67147;DHT22;54061;52.036;5.558;2022-07-06T06:49:32;16.90;66.00
67147;DHT22;54061;52.036;5.558;2022-07-06T06:51:58;16.90;65.90
67147;DHT22;54061;52.036;5.558;2022-07-06T06:54:23;17.00;65.80
67147;DHT22;54061;52.036;5.558;2022-07-06T06:56:49;17.10;65.80
67147;DHT22;54061;52.036;5.558;2022-07-06T06:59:14;17.10;65.80
67147;DHT22;54061;52.036;5.558;2022-07-06T07:01:40;17.20;65.70
67147;DHT22;54061;52.036;5.558;2022-07-06T07:04:08;17.30;65.50
67147;DHT22;54061;52.036;5.558;2022-07-06T07:06:34;17.40;65.30
67147;DHT22;54061;52.036;5.558;2022-07-06T07:08:59;17.40;65.10
67147;DHT22;54061;52.036;5.558;2022-07-06T07:11:25;17.40;65.10
67147;DHT22;54061;52.036;5.558;2022-07-06T07:13:50;17.40;65.10
67147;DHT22;54061;52.036;5.558;2022-07-06T07:16:16;17.40;65.10
67147;DHT22;54061;52.036;5.558;2022-07-06T07:18:42;17.40;65.20
67147;DHT22;54061;52.036;5.558;2022-07-06T07:21:07;17.50;65.00
67147;DHT22;54061;52.036;5.558;2022-07-06T07:23:33;17.60;64.60
67147;DHT22;54061;52.036;5.558;2022-07-06T07:25:58;17.80;64.60
67147;DHT22;54061;52.036;5.558;2022-07-06T07:28:24;17.80;64.20
67147;DHT22;54061;52.036;5.558;2022-07-06T07:30:49;17.80;64.20
67147;DHT22;54061;52.036;5.558;2022-07-06T07:33:16;17.80;64.30
67147;DHT22;54061;52.036;5.558;2022-07-06T07:35:41;17.60;64.40
67147;DHT22;54061;52.036;5.558;2022-07-06T07:38:07;17.50;64.50
67147;DHT22;54061;52.036;5.558;2022-07-06T07:40:32;17.40;64.80
67147;DHT22;54061;52.036;5.558;2022-07-06T07:42:59;17.50;64.80
67147;DHT22;54061;52.036;5.558;2022-07-06T07:45:24;17.70;64.20
67147;DHT22;54061;52.036;5.558;2022-07-06T07:47:50;17.80;63.70
67147;DHT22;54061;52.036;5.558;2022-07-06T07:50:15;18.10;63.50
67147;DHT22;54061;52.036;5.558;2022-07-06T07:52:41;18.30;63.00
67147;DHT22;54061;52.036;5.558;2022-07-06T07:55:07;18.50;62.50
67147;DHT22;54061;52.036;5.558;2022-07-06T07:57:33;18.50;62.60
67147;DHT22;54061;52.036;5.558;2022-07-06T07:59:58;18.40;62.80
67147;DHT22;54061;52.036;5.558;2022-07-06T08:02:24;18.40;62.70
67147;DHT22;54061;52.036;5.558;2022-07-06T08:04:49;18.40;62.00
67147;DHT22;54061;52.036;5.558;2022-07-06T08:07:15;18.30;62.30
67147;DHT22;54061;52.036;5.558;2022-07-06T08:09:40;18.40;62.40
67147;DHT22;54061;52.036;5.558;2022-07-06T08:12:06;18.50;61.90
67147;DHT22;54061;52.036;5.558;2022-07-06T08:14:32;18.60;61.10
67147;DHT22;54061;52.036;5.558;2022-07-06T08:16:57;18.70;61.10
67147;DHT22;54061;52.036;5.558;2022-07-06T08:19:23;18.90;61.20
67147;DHT22;54061;52.036;5.558;2022-07-06T08:21:48;19.10;60.40
67147;DHT22;54061;52.036;5.558;2022-07-06T08:24:14;19.30;59.70
67147;DHT22;54061;52.036;5.558;2022-07-06T08:26:40;19.50;58.70
67147;DHT22;54061;52.036;5.558;2022-07-06T08:29:05;19.60;58.70
67147;DHT22;54061;52.036;5.558;2022-07-06T08:31:31;19.70;58.50
67147;DHT22;54061;52.036;5.558;2022-07-06T08:33:57;19.80;58.50
67147;DHT22;54061;52.036;5.558;2022-07-06T08:36:23;20.00;58.50
67147;DHT22;54061;52.036;5.558;2022-07-06T08:38:49;20.10;58.20
67147;DHT22;54061;52.036;5.558;2022-07-06T08:41:16;20.20;57.00
67147;DHT22;54061;52.036;5.558;2022-07-06T08:43:42;20.20;57.20
67147;DHT22;54061;52.036;5.558;2022-07-06T08:46:08;20.40;57.20
67147;DHT22;54061;52.036;5.558;2022-07-06T08:48:38;20.60;57.40
67147;DHT22;54061;52.036;5.558;2022-07-06T08:51:05;20.90;57.70
67147;DHT22;54061;52.036;5.558;2022-07-06T08:53:32;21.30;59.00
67147;DHT22;54061;52.036;5.558;2022-07-06T08:55:57;21.50;59.80
67147;DHT22;54061;52.036;5.558;2022-07-06T08:58:26;21.80;60.80
67147;DHT22;54061;52.036;5.558;2022-07-06T09:00:56;21.80;60.70
67147;DHT22;54061;52.036;5.558;2022-07-06T09:03:22;21.50;61.30
67147;DHT22;54061;52.036;5.558;2022-07-06T09:05:50;21.20;62.00
67147;DHT22;54061;52.036;5.558;2022-07-06T09:08:15;20.90;61.70
67147;DHT22;54061;52.036;5.558;2022-07-06T09:10:41;20.60;61.90
67147;DHT22;54061;52.036;5.558;2022-07-06T09:13:08;20.60;62.10
67147;DHT22;54061;52.036;5.558;2022-07-06T09:15:34;20.60;62.30
67147;DHT22;54061;52.036;5.558;2022-07-06T09:18:01;20.90;62.20
67147;DHT22;54061;52.036;5.558;2022-07-06T09:20:27;21.20;63.50
67147;DHT22;54061;52.036;5.558;2022-07-06T09:23:01;21.70;63.90
67147;DHT22;54061;52.036;5.558;2022-07-06T09:25:27;22.10;62.10
67147;DHT22;54061;52.036;5.558;2022-07-06T09:27:53;22.50;63.50
67147;DHT22;54061;52.036;5.558;2022-07-06T09:30:21;22.60;63.10
67147;DHT22;54061;52.036;5.558;2022-07-06T09:32:49;22.90;63.70
67147;DHT22;54061;52.036;5.558;2022-07-06T09:35:25;23.00;62.20
67147;DHT22;54061;52.036;5.558;2022-07-06T09:40:30;23.30;59.90
67147;DHT22;54061;52.036;5.558;2022-07-06T09:43:22;23.50;62.40
67147;DHT22;54061;52.036;5.558;2022-07-06T09:45:52;23.70;57.30
67147;DHT22;54061;52.036;5.558;2022-07-06T09:48:22;23.80;56.30
67147;DHT22;54061;52.036;5.558;2022-07-06T09:50:50;23.90;58.50
67147;DHT22;54061;52.036;5.558;2022-07-06T09:53:17;23.80;61.20
67147;DHT22;54061;52.036;5.558;2022-07-06T09:55:47;23.40;61.50
67147;DHT22;54061;52.036;5.558;2022-07-06T09:58:16;23.40;59.40
67147;DHT22;54061;52.036;5.558;2022-07-06T10:00:43;23.20;60.40
67147;DHT22;54061;52.036;5.558;2022-07-06T10:03:08;23.00;60.10
67147;DHT22;54061;52.036;5.558;2022-07-06T10:05:38;23.20;60.60
67147;DHT22;54061;52.036;5.558;2022-07-06T10:08:05;23.50;58.70
67147;DHT22;54061;52.036;5.558;2022-07-06T10:10:32;23.50;58.20
67147;DHT22;54061;52.036;5.558;2022-07-06T10:12:59;23.30;58.20
67147;DHT22;54061;52.036;5.558;2022-07-06T10:15:26;23.40;57.90
67147;DHT22;54061;52.036;5.558;2022-07-06T10:17:52;23.60;57.80
67147;DHT22;54061;52.036;5.558;2022-07-06T10:20:19;23.70;57.30
67147;DHT22;54061;52.036;5.558;2022-07-06T10:22:47;23.80;57.00
67147;DHT22;54061;52.036;5.558;2022-07-06T10:25:17;23.80;55.80
67147;DHT22;54061;52.036;5.558;2022-07-06T10:27:45;23.60;55.00
67147;DHT22;54061;52.036;5.558;2022-07-06T10:30:11;23.30;54.90
67147;DHT22;54061;52.036;5.558;2022-07-06T10:32:39;23.00;55.10
67147;DHT22;54061;52.036;5.558;2022-07-06T10:35:05;22.90;55.60
67147;DHT22;54061;52.036;5.558;2022-07-06T10:37:31;23.00;56.20
67147;DHT22;54061;52.036;5.558;2022-07-06T10:39:59;23.30;56.20
67147;DHT22;54061;52.036;5.558;2022-07-06T10:45:19;23.70;56.30
67147;DHT22;54061;52.036;5.558;2022-07-06T10:47:46;23.70;57.80
67147;DHT22;54061;52.036;5.558;2022-07-06T10:50:11;23.50;43.60
67147;DHT22;54061;52.036;5.558;2022-07-06T10:52:58;23.60;58.80
67147;DHT22;54061;52.036;5.558;2022-07-06T10:55:31;24.00;51.80
67147;DHT22;54061;52.036;5.558;2022-07-06T10:57:58;24.40;56.00
67147;DHT22;54061;52.036;5.558;2022-07-06T11:00:23;25.00;57.50
67147;DHT22;54061;52.036;5.558;2022-07-06T11:02:49;24.90;57.00
67147;DHT22;54061;52.036;5.558;2022-07-06T11:05:40;24.90;56.10
67147;DHT22;54061;52.036;5.558;2022-07-06T11:08:09;24.70;47.50
67147;DHT22;54061;52.036;5.558;2022-07-06T11:10:47;24.90;55.30
67147;DHT22;54061;52.036;5.558;2022-07-06T11:13:27;25.00;52.10
67147;DHT22;54061;52.036;5.558;2022-07-06T11:16:01;25.10;49.20
67147;DHT22;54061;52.036;5.558;2022-07-06T11:18:27;25.10;51.80
67147;DHT22;54061;52.036;5.558;2022-07-06T11:21:14;25.20;55.10
67147;DHT22;54061;52.036;5.558;2022-07-06T11:23:40;24.80;46.60
67147;DHT22;54061;52.036;5.558;2022-07-06T11:26:05;24.60;55.20
67147;DHT22;54061;52.036;5.558;2022-07-06T11:28:31;25.00;55.80
67147;DHT22;54061;52.036;5.558;2022-07-06T11:30:57;25.60;55.00
67147;DHT22;54061;52.036;5.558;2022-07-06T11:33:32;26.10;54.70
67147;DHT22;54061;52.036;5.558;2022-07-06T11:36:20;26.40;46.10
67147;DHT22;54061;52.036;5.558;2022-07-06T11:38:48;26.20;48.50
67147;DHT22;54061;52.036;5.558;2022-07-06T11:41:15;26.40;52.60
67147;DHT22;54061;52.036;5.558;2022-07-06T11:43:45;26.30;50.40
67147;DHT22;54061;52.036;5.558;2022-07-06T11:46:28;26.00;48.70
67147;DHT22;54061;52.036;5.558;2022-07-06T11:48:58;25.50;43.20
67147;DHT22;54061;52.036;5.558;2022-07-06T11:51:25;25.10;49.20
67147;DHT22;54061;52.036;5.558;2022-07-06T11:53:53;25.00;49.60
67147;DHT22;54061;52.036;5.558;2022-07-06T11:56:19;25.00;48.30
67147;DHT22;54061;52.036;5.558;2022-07-06T11:58:48;24.90;48.10
67147;DHT22;54061;52.036;5.558;2022-07-06T12:01:14;24.40;48.00
67147;DHT22;54061;52.036;5.558;2022-07-06T12:03:41;24.40;48.60
67147;DHT22;54061;52.036;5.558;2022-07-06T12:06:17;24.70;48.20
67147;DHT22;54061;52.036;5.558;2022-07-06T12:08:48;24.70;46.10
67147;DHT22;54061;52.036;5.558;2022-07-06T12:11:34;24.80;46.90
67147;DHT22;54061;52.036;5.558;2022-07-06T12:14:13;24.70;44.00
67147;DHT22;54061;52.036;5.558;2022-07-06T12:16:39;24.80;44.10
67147;DHT22;54061;52.036;5.558;2022-07-06T12:19:06;24.80;46.40
67147;DHT22;54061;52.036;5.558;2022-07-06T12:21:34;24.70;45.60
67147;DHT22;54061;52.036;5.558;2022-07-06T12:24:00;24.40;46.20
67147;DHT22;54061;52.036;5.558;2022-07-06T12:26:27;24.30;46.60
67147;DHT22;54061;52.036;5.558;2022-07-06T12:29:05;24.30;46.00
67147;DHT22;54061;52.036;5.558;2022-07-06T12:31:36;24.30;43.20
67147;DHT22;54061;52.036;5.558;2022-07-06T12:34:02;24.20;46.00
67147;DHT22;54061;52.036;5.558;2022-07-06T12:36:28;24.20;46.40
67147;DHT22;54061;52.036;5.558;2022-07-06T12:38:54;24.20;46.30
67147;DHT22;54061;52.036;5.558;2022-07-06T12:41:33;24.40;46.00
67147;DHT22;54061;52.036;5.558;2022-07-06T12:44:01;24.60;42.70
67147;DHT22;54061;52.036;5.558;2022-07-06T12:46:38;24.50;44.80
67147;DHT22;54061;52.036;5.558;2022-07-06T12:49:14;24.10;43.10
67147;DHT22;54061;52.036;5.558;2022-07-06T12:52:04;24.00;43.60
67147;DHT22;54061;52.036;5.558;2022-07-06T12:54:34;24.00;43.60
67147;DHT22;54061;52.036;5.558;2022-07-06T12:57:08;23.90;45.50
67147;DHT22;54061;52.036;5.558;2022-07-06T12:59:37;24.20;44.40
67147;DHT22;54061;52.036;5.558;2022-07-06T13:02:06;24.30;44.70
67147;DHT22;54061;52.036;5.558;2022-07-06T13:04:33;24.40;44.50
67147;DHT22;54061;52.036;5.558;2022-07-06T13:07:00;24.20;44.80
67147;DHT22;54061;52.036;5.558;2022-07-06T13:09:26;24.30;44.70
67147;DHT22;54061;52.036;5.558;2022-07-06T13:11:52;24.40;44.50
67147;DHT22;54061;52.036;5.558;2022-07-06T13:14:18;24.60;44.20
67147;DHT22;54061;52.036;5.558;2022-07-06T13:16:45;24.80;43.50
67147;DHT22;54061;52.036;5.558;2022-07-06T13:19:12;24.20;43.60
67147;DHT22;54061;52.036;5.558;2022-07-06T13:21:38;23.90;44.30
67147;DHT22;54061;52.036;5.558;2022-07-06T13:24:04;23.90;44.30
67147;DHT22;54061;52.036;5.558;2022-07-06T13:26:30;23.90;44.30
67147;DHT22;54061;52.036;5.558;2022-07-06T13:28:59;24.10;44.50
67147;DHT22;54061;52.036;5.558;2022-07-06T13:31:25;24.30;44.30
67147;DHT22;54061;52.036;5.558;2022-07-06T13:33:50;24.50;44.90
67147;DHT22;54061;52.036;5.558;2022-07-06T13:36:16;24.60;43.50
67147;DHT22;54061;52.036;5.558;2022-07-06T13:38:41;24.40;43.50
67147;DHT22;54061;52.036;5.558;2022-07-06T13:41:07;24.30;43.80
67147;DHT22;54061;52.036;5.558;2022-07-06T13:43:33;24.20;44.00
67147;DHT22;54061;52.036;5.558;2022-07-06T13:46:06;23.80;44.20
67147;DHT22;54061;52.036;5.558;2022-07-06T13:48:32;23.80;44.60
67147;DHT22;54061;52.036;5.558;2022-07-06T13:50:58;24.00;44.60
67147;DHT22;54061;52.036;5.558;2022-07-06T13:53:24;24.20;44.10
67147;DHT22;54061;52.036;5.558;2022-07-06T13:55:50;24.10;44.20
67147;DHT22;54061;52.036;5.558;2022-07-06T13:58:16;24.10;44.30
67147;DHT22;54061;52.036;5.558;2022-07-06T14:00:41;24.10;44.20
67147;DHT22;54061;52.036;5.558;2022-07-06T14:03:07;23.90;44.30
67147;DHT22;54061;52.036;5.558;2022-07-06T14:05:33;23.90;44.70
67147;DHT22;54061;52.036;5.558;2022-07-06T14:07:59;23.90;44.20
67147;DHT22;54061;52.036;5.558;2022-07-06T14:10:25;23.90;44.70
67147;DHT22;54061;52.036;5.558;2022-07-06T14:12:50;24.10;44.60
67147;DHT22;54061;52.036;5.558;2022-07-06T14:15:16;24.30;44.30
67147;DHT22;54061;52.036;5.558;2022-07-06T14:17:41;24.30;44.20
67147;DHT22;54061;52.036;5.558;2022-07-06T14:20:07;24.30;44.10
67147;DHT22;54061;52.036;5.558;2022-07-06T14:22:33;24.10;43.80
67147;DHT22;54061;52.036;5.558;2022-07-06T14:24:59;23.80;44.30
67147;DHT22;54061;52.036;5.558;2022-07-06T14:27:25;23.70;44.30
67147;DHT22;54061;52.036;5.558;2022-07-06T14:29:50;23.60;44.50
67147;DHT22;54061;52.036;5.558;2022-07-06T14:32:16;23.90;44.40
67147;DHT22;54061;52.036;5.558;2022-07-06T14:34:41;24.10;43.90
67147;DHT22;54061;52.036;5.558;2022-07-06T14:37:07;24.00;43.80
67147;DHT22;54061;52.036;5.558;2022-07-06T14:39:33;23.80;44.10
67147;DHT22;54061;52.036;5.558;2022-07-06T14:41:59;23.60;44.10
67147;DHT22;54061;52.036;5.558;2022-07-06T14:44:24;23.40;44.60
67147;DHT22;54061;52.036;5.558;2022-07-06T14:46:51;23.30;44.60
67147;DHT22;54061;52.036;5.558;2022-07-06T14:49:17;23.40;44.80
67147;DHT22;54061;52.036;5.558;2022-07-06T14:51:43;23.30;44.70
67147;DHT22;54061;52.036;5.558;2022-07-06T14:54:08;23.20;44.60
67147;DHT22;54061;52.036;5.558;2022-07-06T14:56:35;23.20;44.90
67147;DHT22;54061;52.036;5.558;2022-07-06T14:59:00;23.10;44.90
67147;DHT22;54061;52.036;5.558;2022-07-06T15:01:26;23.00;45.10
67147;DHT22;54061;52.036;5.558;2022-07-06T15:03:51;23.00;45.20
67147;DHT22;54061;52.036;5.558;2022-07-06T15:06:17;23.00;45.80
67147;DHT22;54061;52.036;5.558;2022-07-06T15:08:42;23.00;45.20
67147;DHT22;54061;52.036;5.558;2022-07-06T15:11:08;22.90;45.30
67147;DHT22;54061;52.036;5.558;2022-07-06T15:13:33;23.00;45.30
67147;DHT22;54061;52.036;5.558;2022-07-06T15:15:59;22.90;45.20
67147;DHT22;54061;52.036;5.558;2022-07-06T15:18:25;22.70;45.40
67147;DHT22;54061;52.036;5.558;2022-07-06T15:20:50;22.80;45.50
67147;DHT22;54061;52.036;5.558;2022-07-06T15:23:16;22.80;45.50
67147;DHT22;54061;52.036;5.558;2022-07-06T15:25:42;22.80;45.60
67147;DHT22;54061;52.036;5.558;2022-07-06T15:28:07;22.80;45.60
67147;DHT22;54061;52.036;5.558;2022-07-06T15:30:33;22.80;45.70
67147;DHT22;54061;52.036;5.558;2022-07-06T15:32:59;22.70;45.90
67147;DHT22;54061;52.036;5.558;2022-07-06T15:35:25;22.70;45.70